createdAt,value
2023-02-13T00:00:22.752Z,-1.74
2023-02-13T00:02:49.910Z,-1.75
2023-02-13T00:05:18.399Z,-1.80
2023-02-13T00:07:45.274Z,-1.82
2023-02-13T00:10:13.913Z,-1.83
2023-02-13T00:12:41.076Z,-1.87
2023-02-13T00:15:08.783Z,-1.91
2023-02-13T00:17:36.105Z,-1.95
2023-02-13T00:20:03.047Z,-1.99
2023-02-13T00:22:29.781Z,-1.92
2023-02-13T00:24:56.621Z,-1.91
2023-02-13T00:27:24.705Z,-1.90
2023-02-13T00:29:51.516Z,-1.89
2023-02-13T00:32:18.272Z,-1.86
2023-02-13T00:34:45.099Z,-1.87
2023-02-13T00:37:11.836Z,-1.89
2023-02-13T00:39:38.577Z,-1.90
2023-02-13T00:42:05.485Z,-1.93
2023-02-13T00:44:33.931Z,-1.98
2023-02-13T00:47:00.659Z,-2.03
2023-02-13T00:49:27.489Z,-2.06
2023-02-13T00:51:54.342Z,-2.11
2023-02-13T00:54:21.168Z,-2.09
2023-02-13T00:56:48.695Z,-2.13
2023-02-13T00:59:15.767Z,-2.18
2023-02-13T01:01:44.267Z,-2.10
2023-02-13T01:04:11.319Z,-1.98
2023-02-13T01:06:38.119Z,-1.90
2023-02-13T01:09:04.848Z,-1.86
2023-02-13T01:11:31.655Z,-1.89
2023-02-13T01:13:58.440Z,-1.91
2023-02-13T01:16:25.223Z,-2.00
2023-02-13T01:18:53.473Z,-2.06
2023-02-13T01:21:22.507Z,-2.04
2023-02-13T01:23:49.492Z,-2.09
2023-02-13T01:26:18.733Z,-2.19
2023-02-13T01:28:45.668Z,-2.28
2023-02-13T01:31:12.682Z,-2.31
2023-02-13T01:33:39.473Z,-2.35
2023-02-13T01:36:09.329Z,-2.35
2023-02-13T01:38:36.091Z,-2.35
2023-02-13T01:41:02.871Z,-2.36
2023-02-13T01:43:44.881Z,-2.29
2023-02-13T01:46:13.204Z,-2.23
2023-02-13T01:48:40.071Z,-2.19
2023-02-13T01:51:13.318Z,-2.18
2023-02-13T01:53:43.604Z,-2.25
2023-02-13T01:56:15.777Z,-2.25
2023-02-13T01:58:46.097Z,-2.23
2023-02-13T02:01:12.982Z,-2.28
2023-02-13T02:03:46.313Z,-2.41
2023-02-13T02:06:18.638Z,-2.55
2023-02-13T02:08:48.446Z,-2.52
2023-02-13T02:11:20.712Z,-2.55
2023-02-13T02:13:47.839Z,-2.52
2023-02-13T02:16:14.729Z,-2.67
2023-02-13T02:18:41.500Z,-2.52
2023-02-13T02:21:48.532Z,-2.49
2023-02-13T02:24:38.667Z,-2.48
2023-02-13T02:27:18.100Z,-2.48
2023-02-13T02:30:05.891Z,-2.52
2023-02-13T02:32:57.510Z,-2.55
2023-02-13T02:35:34.514Z,-2.64
2023-02-13T02:38:17.758Z,-2.67
2023-02-13T02:40:59.429Z,-2.67
2023-02-13T02:43:38.409Z,-2.78
2023-02-13T02:46:13.634Z,-2.70
2023-02-13T02:48:48.997Z,-2.72
2023-02-13T02:51:22.340Z,-2.91
2023-02-13T02:53:58.768Z,-2.96
2023-02-13T02:56:30.701Z,-2.79
2023-02-13T02:59:04.001Z,-2.64
2023-02-13T03:01:33.564Z,-2.65
2023-02-13T03:04:03.150Z,-2.52
2023-02-13T03:06:36.193Z,-2.36
2023-02-13T03:09:10.628Z,-2.33
2023-02-13T03:11:38.371Z,-2.25
2023-02-13T03:14:09.186Z,-2.25
2023-02-13T03:16:36.068Z,-2.31
2023-02-13T03:19:04.904Z,-2.27
2023-02-13T03:21:43.352Z,-2.36
2023-02-13T03:24:17.740Z,-2.40
2023-02-13T03:26:54.723Z,-2.54
2023-02-13T03:29:32.788Z,-2.61
2023-02-13T03:32:10.360Z,-2.65
2023-02-13T03:34:48.220Z,-2.66
2023-02-13T03:37:17.011Z,-2.61
2023-02-13T03:39:53.624Z,-2.58
2023-02-13T03:42:29.050Z,-2.59
2023-02-13T03:45:00.948Z,-2.59
2023-02-13T03:47:27.825Z,-2.57
2023-02-13T03:49:56.102Z,-2.53
2023-02-13T03:52:29.218Z,-2.55
2023-02-13T03:55:00.133Z,-2.59
2023-02-13T03:57:29.788Z,-2.59
2023-02-13T03:59:57.397Z,-2.63
2023-02-13T04:02:28.868Z,-2.71
2023-02-13T04:05:03.031Z,-2.71
2023-02-13T04:07:29.943Z,-2.72
2023-02-13T04:09:59.157Z,-2.67
2023-02-13T04:12:35.547Z,-2.71
2023-02-13T04:15:07.356Z,-2.76
2023-02-13T04:17:38.851Z,-2.83
2023-02-13T04:20:08.727Z,-2.89
2023-02-13T04:22:41.402Z,-2.87
2023-02-13T04:25:08.420Z,-2.93
2023-02-13T04:27:35.177Z,-2.97
2023-02-13T04:30:01.949Z,-3.03
2023-02-13T04:32:28.853Z,-3.09
2023-02-13T04:34:55.651Z,-3.12
2023-02-13T04:37:23.820Z,-3.33
2023-02-13T04:39:50.742Z,-3.20
2023-02-13T04:42:17.563Z,-3.15
2023-02-13T04:44:44.273Z,-3.16
2023-02-13T04:47:11.027Z,-3.12
2023-02-13T04:49:37.771Z,-3.14
2023-02-13T04:52:04.756Z,-3.13
2023-02-13T04:54:32.844Z,-3.14
2023-02-13T04:56:59.555Z,-3.16
2023-02-13T04:59:26.281Z,-3.17
2023-02-13T05:01:53.039Z,-3.24
2023-02-13T05:04:19.812Z,-3.28
2023-02-13T05:06:46.715Z,-3.20
2023-02-13T05:09:13.507Z,-3.14
2023-02-13T05:11:41.639Z,-3.12
2023-02-13T05:14:10.386Z,-3.10
2023-02-13T05:16:37.160Z,-3.09
2023-02-13T05:19:04.104Z,-3.09
2023-02-13T05:21:30.816Z,-3.07
2023-02-13T05:23:57.567Z,-3.15
2023-02-13T05:26:24.449Z,-3.15
2023-02-13T05:28:52.577Z,-3.14
2023-02-13T05:31:19.469Z,-3.13
2023-02-13T05:33:46.297Z,-3.06
2023-02-13T05:36:13.204Z,-3.08
2023-02-13T05:38:40.163Z,-3.14
2023-02-13T05:41:06.972Z,-3.20
2023-02-13T05:43:33.892Z,-3.46
2023-02-13T05:46:07.607Z,-3.40
2023-02-13T05:48:35.452Z,-3.35
2023-02-13T05:51:02.389Z,-3.33
2023-02-13T05:53:29.220Z,-3.26
2023-02-13T05:55:56.381Z,-3.29
2023-02-13T05:58:23.225Z,-3.21
2023-02-13T06:00:50.088Z,-3.16
2023-02-13T06:03:18.196Z,-3.14
2023-02-13T06:05:44.962Z,-3.14
2023-02-13T06:08:11.705Z,-3.17
2023-02-13T06:10:38.596Z,-3.18
2023-02-13T06:13:05.567Z,-3.20
2023-02-13T06:15:32.637Z,-3.24
2023-02-13T06:17:59.379Z,-3.24
2023-02-13T06:20:27.693Z,-3.22
2023-02-13T06:22:54.499Z,-3.19
2023-02-13T06:25:21.353Z,-3.21
2023-02-13T06:27:48.621Z,-3.22
2023-02-13T06:30:16.746Z,-3.29
2023-02-13T06:32:44.068Z,-3.41
2023-02-13T06:35:10.933Z,-3.36
2023-02-13T06:37:39.359Z,-3.39
2023-02-13T06:40:07.818Z,-3.45
2023-02-13T06:42:34.564Z,-3.36
2023-02-13T06:45:01.346Z,-3.28
2023-02-13T06:47:28.060Z,-3.21
2023-02-13T06:49:54.865Z,-3.17
2023-02-13T06:52:21.693Z,-3.15
2023-02-13T06:54:49.765Z,-3.14
2023-02-13T06:57:16.833Z,-3.16
2023-02-13T06:59:43.583Z,-3.14
2023-02-13T07:02:11.231Z,-3.18
2023-02-13T07:04:38.238Z,-3.18
2023-02-13T07:07:05.601Z,-3.20
2023-02-13T07:09:32.837Z,-3.21
2023-02-13T07:12:02.980Z,-3.17
2023-02-13T07:14:29.818Z,-3.13
2023-02-13T07:16:57.249Z,-3.22
2023-02-13T07:19:24.340Z,-3.26
2023-02-13T07:21:51.086Z,-3.22
2023-02-13T07:24:18.377Z,-3.31
2023-02-13T07:26:45.239Z,-3.27
2023-02-13T07:29:13.417Z,-3.20
2023-02-13T07:31:40.311Z,-3.25
2023-02-13T07:34:07.211Z,-3.16
2023-02-13T07:36:34.323Z,-3.10
2023-02-13T07:39:01.160Z,-2.98
2023-02-13T07:41:27.911Z,-2.83
2023-02-13T07:43:54.861Z,-2.62
2023-02-13T07:46:23.010Z,-2.44
2023-02-13T07:48:51.927Z,-2.27
2023-02-13T07:51:18.860Z,-2.06
2023-02-13T07:53:45.595Z,-1.86
2023-02-13T07:56:12.529Z,-1.62
2023-02-13T07:58:39.277Z,-1.32
2023-02-13T08:01:07.670Z,-1.08
2023-02-13T08:03:35.941Z,-0.83
2023-02-13T08:06:03.236Z,-0.55
2023-02-13T08:08:30.297Z,-0.32
2023-02-13T08:10:57.931Z,-0.12
2023-02-13T08:13:25.690Z,0.09
2023-02-13T08:15:52.401Z,0.32
2023-02-13T08:18:20.179Z,0.53
2023-02-13T08:20:48.412Z,0.77
2023-02-13T08:23:15.242Z,0.94
2023-02-13T08:25:42.004Z,1.15
2023-02-13T08:28:08.902Z,1.33
2023-02-13T08:30:35.770Z,1.50
2023-02-13T08:33:02.545Z,1.66
2023-02-13T08:35:29.256Z,1.82
2023-02-13T08:37:57.625Z,1.99
2023-02-13T08:40:25.547Z,2.15
2023-02-13T08:42:52.781Z,2.31
2023-02-13T08:45:19.628Z,2.45
2023-02-13T08:47:55.452Z,2.53
2023-02-13T08:50:22.258Z,2.64
2023-02-13T08:52:48.986Z,2.71
2023-02-13T08:55:17.247Z,2.77
2023-02-13T08:57:44.000Z,2.84
2023-02-13T09:00:11.735Z,2.92
2023-02-13T09:02:38.559Z,3.04
2023-02-13T09:05:06.168Z,3.08
2023-02-13T09:07:32.916Z,3.14
2023-02-13T09:09:59.633Z,3.16
2023-02-13T09:12:27.835Z,3.22
2023-02-13T09:14:54.607Z,3.28
2023-02-13T09:17:21.484Z,3.33
2023-02-13T09:19:48.202Z,3.43
2023-02-13T09:22:14.968Z,3.34
2023-02-13T09:24:41.679Z,3.43
2023-02-13T09:27:08.582Z,3.60
2023-02-13T09:29:36.736Z,3.77
2023-02-13T09:32:04.802Z,3.93
2023-02-13T09:34:31.675Z,3.97
2023-02-13T09:36:58.571Z,4.04
2023-02-13T09:39:25.460Z,4.13
2023-02-13T09:41:54.658Z,4.14
2023-02-13T09:44:30.415Z,4.23
2023-02-13T09:46:59.237Z,4.30
2023-02-13T09:49:30.637Z,4.39
2023-02-13T09:51:58.729Z,4.48
2023-02-13T09:54:25.904Z,4.57
2023-02-13T09:56:57.732Z,4.61
2023-02-13T09:59:39.442Z,4.72
2023-02-13T10:02:28.580Z,4.75
2023-02-13T10:05:04.108Z,4.81
2023-02-13T10:07:39.435Z,4.82
2023-02-13T10:10:17.220Z,4.87
2023-02-13T10:12:56.858Z,4.88
2023-02-13T10:15:31.089Z,4.92
2023-02-13T10:18:03.380Z,5.01
2023-02-13T10:20:34.340Z,5.08
2023-02-13T10:23:12.344Z,5.18
2023-02-13T10:25:46.561Z,5.26
2023-02-13T10:28:16.219Z,5.36
2023-02-13T10:30:50.477Z,5.42
2023-02-13T10:33:20.197Z,5.48
2023-02-13T10:35:53.269Z,5.46
2023-02-13T10:38:21.871Z,5.52
2023-02-13T10:41:04.532Z,5.60
2023-02-13T10:43:39.301Z,5.59
2023-02-13T10:46:16.378Z,5.70
2023-02-13T10:49:00.337Z,5.82
2023-02-13T10:51:34.564Z,5.84
2023-02-13T10:54:21.123Z,5.96
2023-02-13T10:56:54.851Z,6.08
2023-02-13T10:59:38.052Z,6.09
2023-02-13T11:02:23.313Z,6.17
2023-02-13T11:04:53.143Z,6.22
2023-02-13T11:07:23.299Z,6.27
2023-02-13T11:09:52.669Z,6.36
2023-02-13T11:12:25.272Z,6.43
2023-02-13T11:14:54.593Z,6.51
2023-02-13T11:17:23.713Z,6.43
2023-02-13T11:19:54.218Z,6.53
2023-02-13T11:22:31.707Z,6.57
2023-02-13T11:25:01.433Z,6.60
2023-02-13T11:27:32.985Z,6.70
2023-02-13T11:30:01.240Z,6.77
2023-02-13T11:32:29.215Z,6.84
2023-02-13T11:34:57.651Z,6.85
2023-02-13T11:37:26.425Z,6.88
2023-02-13T11:39:55.370Z,6.92
2023-02-13T11:42:28.071Z,6.99
2023-02-13T11:44:58.572Z,6.99
2023-02-13T11:47:37.978Z,6.98
2023-02-13T11:50:19.651Z,6.97
2023-02-13T11:52:55.042Z,7.00
2023-02-13T11:55:29.243Z,7.07
2023-02-13T11:57:57.464Z,7.12
2023-02-13T12:00:31.982Z,7.14
2023-02-13T12:02:58.874Z,7.19
2023-02-13T12:05:28.344Z,7.15
2023-02-13T12:07:59.841Z,7.21
2023-02-13T12:10:28.384Z,7.22
2023-02-13T12:12:57.407Z,7.25
2023-02-13T12:15:26.484Z,7.24
2023-02-13T12:18:04.602Z,7.28
2023-02-13T12:20:41.465Z,7.33
2023-02-13T12:23:17.827Z,7.39
2023-02-13T12:25:54.146Z,7.43
2023-02-13T12:28:28.313Z,7.44
2023-02-13T12:31:23.280Z,7.42
2023-02-13T12:34:30.583Z,7.49
2023-02-13T12:37:11.944Z,7.54
2023-02-13T12:39:42.794Z,7.51
2023-02-13T12:42:23.665Z,7.56
2023-02-13T12:45:12.770Z,7.59
2023-02-13T12:47:56.088Z,7.66
2023-02-13T12:50:39.732Z,7.59
2023-02-13T12:53:31.981Z,7.63
2023-02-13T12:56:13.132Z,7.69
2023-02-13T12:58:56.257Z,7.73
2023-02-13T13:01:32.011Z,7.69
2023-02-13T13:04:09.981Z,7.64
2023-02-13T13:06:57.914Z,7.65
2023-02-13T13:09:58.331Z,7.65
2023-02-13T13:12:36.016Z,7.69
2023-02-13T13:15:08.359Z,7.66
2023-02-13T13:17:50.422Z,7.63
2023-02-13T13:21:04.630Z,7.65
2023-02-13T13:23:37.405Z,7.64
2023-02-13T13:26:17.428Z,7.63
2023-02-13T13:28:47.139Z,7.62
2023-02-13T13:31:15.195Z,7.57
2023-02-13T13:33:45.523Z,7.57
2023-02-13T13:36:25.486Z,7.57
2023-02-13T13:39:01.680Z,7.48
2023-02-13T13:41:40.438Z,7.46
2023-02-13T13:44:23.161Z,7.45
2023-02-13T13:46:58.616Z,7.41
2023-02-13T13:49:34.393Z,7.38
2023-02-13T13:52:19.236Z,7.38
2023-02-13T13:54:46.049Z,7.39
2023-02-13T13:57:14.244Z,7.40
2023-02-13T14:00:24.313Z,7.44
2023-02-13T14:03:11.881Z,7.39
2023-02-13T14:06:02.728Z,7.33
2023-02-13T14:09:05.993Z,7.24
2023-02-13T14:11:41.073Z,7.18
2023-02-13T14:14:50.924Z,7.14
2023-02-13T14:17:50.990Z,7.02
2023-02-13T14:20:26.894Z,6.87
2023-02-13T14:22:55.289Z,6.80
2023-02-13T14:25:24.668Z,6.69
2023-02-13T14:27:59.700Z,6.69
2023-02-13T14:30:29.647Z,6.63
2023-02-13T14:33:01.612Z,6.59
2023-02-13T14:35:31.938Z,6.58
2023-02-13T14:38:01.210Z,6.53
2023-02-13T14:40:32.152Z,6.46
2023-02-13T14:43:06.617Z,6.48
2023-02-13T14:45:41.162Z,6.43
2023-02-13T14:48:14.165Z,6.39
2023-02-13T14:50:46.879Z,6.33
2023-02-13T14:53:21.951Z,6.26
2023-02-13T14:55:55.753Z,6.17
2023-02-13T14:58:27.214Z,6.10
2023-02-13T15:00:59.148Z,6.04
2023-02-13T15:03:35.793Z,5.96
2023-02-13T15:06:07.337Z,5.87
2023-02-13T15:08:40.915Z,5.79
2023-02-13T15:11:08.001Z,5.71
2023-02-13T15:13:36.327Z,5.63
2023-02-13T15:16:08.939Z,5.57
2023-02-13T15:18:41.680Z,5.47
2023-02-13T15:21:15.684Z,5.37
2023-02-13T15:23:43.114Z,5.28
2023-02-13T15:26:19.021Z,5.22
2023-02-13T15:28:58.549Z,5.10
2023-02-13T15:31:25.724Z,4.99
2023-02-13T15:33:54.010Z,4.89
2023-02-13T15:36:22.523Z,4.80
2023-02-13T15:38:49.285Z,4.69
2023-02-13T15:41:22.417Z,4.60
2023-02-13T15:43:52.329Z,4.51
2023-02-13T15:46:21.412Z,4.39
2023-02-13T15:48:48.772Z,4.32
2023-02-13T15:51:20.818Z,4.21
2023-02-13T15:53:51.400Z,4.10
2023-02-13T15:56:18.133Z,4.25
2023-02-13T15:58:45.517Z,4.11
2023-02-13T16:01:13.315Z,3.98
2023-02-13T16:03:41.656Z,3.90
2023-02-13T16:06:14.626Z,3.54
2023-02-13T16:08:45.929Z,3.60
2023-02-13T16:11:23.539Z,3.47
2023-02-13T16:15:34.497Z,3.20
2023-02-13T16:18:02.443Z,3.04
2023-02-13T16:20:32.947Z,2.89
2023-02-13T16:23:04.412Z,2.74
2023-02-13T16:25:34.876Z,2.61
2023-02-13T16:28:03.154Z,2.42
2023-02-13T16:30:34.589Z,2.22
2023-02-13T16:33:20.308Z,2.13
2023-02-13T16:35:48.823Z,1.95
2023-02-13T16:38:33.712Z,1.85
2023-02-13T16:41:01.926Z,1.76
2023-02-13T16:43:44.269Z,1.66
2023-02-13T16:46:37.344Z,1.60
2023-02-13T16:49:19.435Z,1.52
2023-02-13T16:51:50.222Z,1.45
2023-02-13T16:54:23.666Z,1.37
2023-02-13T16:56:53.546Z,1.25
2023-02-13T16:59:30.048Z,1.19
2023-02-13T17:02:23.612Z,0.95
2023-02-13T17:04:53.129Z,0.95
2023-02-13T17:07:23.196Z,0.96
2023-02-13T17:09:53.822Z,1.00
2023-02-13T17:12:21.087Z,0.99
2023-02-13T17:14:48.065Z,1.02
2023-02-13T17:17:17.515Z,1.01
2023-02-13T17:19:46.226Z,1.02
2023-02-13T17:22:20.617Z,1.03
2023-02-13T17:24:47.426Z,1.08
2023-02-13T17:27:14.160Z,1.03
2023-02-13T17:29:42.605Z,0.92
2023-02-13T17:32:16.624Z,0.88
2023-02-13T17:34:44.873Z,0.73
2023-02-13T17:37:17.870Z,0.67
2023-02-13T17:39:45.482Z,0.66
2023-02-13T17:42:16.935Z,0.77
2023-02-13T17:44:43.701Z,0.75
2023-02-13T17:47:10.552Z,0.76
2023-02-13T17:49:37.389Z,0.83
2023-02-13T17:52:05.729Z,0.89
2023-02-13T17:54:32.579Z,0.87
2023-02-13T17:56:59.360Z,0.73
2023-02-13T17:59:26.618Z,0.68
2023-02-13T18:01:53.461Z,0.66
2023-02-13T18:04:20.575Z,0.62
2023-02-13T18:06:53.088Z,0.54
2023-02-13T18:09:21.826Z,0.37
2023-02-13T18:12:03.711Z,0.32
2023-02-13T18:14:33.004Z,0.42
2023-02-13T18:17:00.468Z,0.48
2023-02-13T18:19:27.903Z,0.40
2023-02-13T18:21:54.777Z,0.36
2023-02-13T18:24:27.583Z,0.39
2023-02-13T18:26:56.029Z,0.36
2023-02-13T18:29:23.301Z,0.37
2023-02-13T18:31:50.385Z,0.37
2023-02-13T18:34:17.243Z,0.28
2023-02-13T18:36:44.288Z,0.21
2023-02-13T18:39:11.083Z,0.22
2023-02-13T18:41:39.543Z,0.27
2023-02-13T18:44:06.982Z,0.25
2023-02-13T18:46:34.748Z,0.15
2023-02-13T18:49:01.636Z,0.11
2023-02-13T18:51:28.542Z,0.05
2023-02-13T18:53:55.399Z,0.05
2023-02-13T18:56:22.182Z,-0.07
2023-02-13T18:58:50.936Z,-0.14
2023-02-13T19:01:19.728Z,-0.16
2023-02-13T19:03:47.351Z,-0.22
2023-02-13T19:06:16.032Z,-0.22
2023-02-13T19:08:42.862Z,-0.31
2023-02-13T19:11:11.637Z,-0.48
2023-02-13T19:13:38.391Z,-0.34
2023-02-13T19:16:08.683Z,-0.30
2023-02-13T19:18:36.552Z,-0.31
2023-02-13T19:21:04.178Z,-0.41
2023-02-13T19:23:31.082Z,-0.43
2023-02-13T19:25:57.933Z,-0.44
2023-02-13T19:28:26.851Z,-0.50
2023-02-13T19:30:53.878Z,-0.42
2023-02-13T19:33:22.140Z,-0.36
2023-02-13T19:35:57.797Z,-0.30
2023-02-13T19:38:25.015Z,-0.31
2023-02-13T19:40:52.022Z,-0.29
2023-02-13T19:43:18.797Z,-0.31
2023-02-13T19:45:45.607Z,-0.30
2023-02-13T19:48:12.695Z,-0.42
2023-02-13T19:50:40.997Z,-0.51
2023-02-13T19:53:07.830Z,-0.56
2023-02-13T19:55:34.955Z,-0.60
2023-02-13T19:58:01.754Z,-0.75
2023-02-13T20:00:28.491Z,-0.71
2023-02-13T20:03:00.607Z,-0.64
2023-02-13T20:05:27.484Z,-0.55
2023-02-13T20:07:55.624Z,-0.50
2023-02-13T20:10:22.507Z,-0.43
2023-02-13T20:12:49.613Z,-0.45
2023-02-13T20:15:16.656Z,-0.53
2023-02-13T20:17:43.889Z,-0.57
2023-02-13T20:20:11.858Z,-0.62
2023-02-13T20:22:39.047Z,-0.70
2023-02-13T20:25:07.935Z,-0.73
2023-02-13T20:30:09.798Z,-0.76
2023-02-13T20:32:36.623Z,-0.72
2023-02-13T20:35:04.390Z,-0.67
2023-02-13T20:37:31.778Z,-0.70
2023-02-13T20:39:58.693Z,-0.69
2023-02-13T20:42:26.908Z,-0.70
2023-02-13T20:44:53.759Z,-0.72
2023-02-13T20:47:20.680Z,-1.01
2023-02-13T20:49:48.074Z,-0.99
2023-02-13T20:52:14.843Z,-1.00
2023-02-13T20:54:41.802Z,-0.97
2023-02-13T20:57:08.563Z,-1.00
2023-02-13T20:59:36.805Z,-0.96
2023-02-13T21:02:03.646Z,-1.11
2023-02-13T21:04:30.683Z,-1.11
2023-02-13T21:06:57.416Z,-1.04
2023-02-13T21:09:24.206Z,-0.97
2023-02-13T21:11:52.106Z,-0.92
2023-02-13T21:14:18.833Z,-0.93
2023-02-13T21:16:47.153Z,-1.01
2023-02-13T21:19:16.298Z,-1.00
2023-02-13T21:21:43.603Z,-1.00
2023-02-13T21:24:12.607Z,-0.96
2023-02-13T21:26:40.393Z,-1.03
2023-02-13T21:29:07.547Z,-0.95
2023-02-13T21:31:36.358Z,-0.90
2023-02-13T21:34:06.745Z,-0.80
2023-02-13T21:36:35.423Z,-0.80
2023-02-13T21:39:02.658Z,-0.83
2023-02-13T21:41:29.438Z,-0.88
2023-02-13T21:43:56.272Z,-0.84
2023-02-13T21:46:25.759Z,-0.78
2023-02-13T21:48:53.873Z,-0.72
2023-02-13T21:51:23.356Z,-0.78
2023-02-13T21:53:50.957Z,-0.82
2023-02-13T21:56:19.141Z,-0.91
2023-02-13T21:58:46.395Z,-0.93
2023-02-13T22:01:25.338Z,-1.03
2023-02-13T22:03:54.142Z,-1.24
2023-02-13T22:06:22.427Z,-1.17
2023-02-13T22:08:49.922Z,-0.98
2023-02-13T22:11:17.502Z,-0.91
2023-02-13T22:13:44.415Z,-0.79
2023-02-13T22:16:13.628Z,-0.85
2023-02-13T22:18:42.613Z,-0.85
2023-02-13T22:21:11.231Z,-0.76
2023-02-13T22:23:40.567Z,-0.72
2023-02-13T22:26:07.797Z,-0.70
2023-02-13T22:28:34.647Z,-0.83
2023-02-13T22:31:08.068Z,-0.79
2023-02-13T22:33:34.881Z,-0.58
2023-02-13T22:36:02.040Z,-0.40
2023-02-13T22:38:31.147Z,-0.42
2023-02-13T22:41:04.647Z,-0.51
2023-02-13T22:43:31.762Z,-0.57
2023-02-13T22:46:02.672Z,-0.78
2023-02-13T22:48:29.414Z,-0.80
2023-02-13T22:50:56.368Z,-0.79
2023-02-13T22:53:23.106Z,-0.72
2023-02-13T22:55:49.980Z,-0.67
2023-02-13T22:58:18.074Z,-0.61
2023-02-13T23:00:44.870Z,-0.63
2023-02-13T23:03:11.641Z,-0.80
2023-02-13T23:05:39.288Z,-0.93
2023-02-13T23:08:06.160Z,-0.90
2023-02-13T23:10:33.015Z,-0.73
2023-02-13T23:12:59.980Z,-0.59
2023-02-13T23:15:28.421Z,-0.52
2023-02-13T23:17:55.184Z,-0.49
2023-02-13T23:20:22.838Z,-0.46
2023-02-13T23:22:49.801Z,-0.54
2023-02-13T23:25:17.067Z,-0.45
2023-02-13T23:27:43.972Z,-0.45
2023-02-13T23:30:13.222Z,-0.54
2023-02-13T23:32:41.709Z,-0.53
2023-02-13T23:35:08.954Z,-0.55
2023-02-13T23:37:35.755Z,-0.55
2023-02-13T23:40:03.281Z,-0.47
2023-02-13T23:42:30.076Z,-0.59
2023-02-13T23:44:56.876Z,-0.61
2023-02-13T23:47:23.615Z,-0.69
2023-02-13T23:49:51.841Z,-0.81
2023-02-13T23:52:18.612Z,-0.80
2023-02-13T23:54:45.393Z,-0.79
2023-02-13T23:57:13.014Z,-0.89
2023-02-13T23:59:39.790Z,-0.88
